Location Sebastian, FL, US

ob KFLSEBAS1 281105Z AUTO 17000KT CLR 25/24 A3009 RMK SLPNO 

2020.05.28 1105 UTC
Wind from the S (169 degrees) at Calm MPH ( KT) gusting to 0.0 MPH (0 KT)
Visibility    Mile(s)
Sky Conditions  clear
Temperature 76.10 F (25 C)
Dew Point 75.80 F (24 C)
Relative Humidity 99%
Pressure   30.09 in. Hg (1019 hPa)
Rain  0.00 in.
Daily Rain  in.

Station Name  Memory Makers, Inc.
Longitude, Latitude  -80.48, 27.8
Elevation 23
Station URL www.kflsebas1.com
Software Type VWS V15.00